Time;durP1;ratioP1;P1;durP2;ratioP2;P2;SDS_P1;SDS_P2;PMS_P1;PMS_P2;Temp;Humidity;BMP_temperature;BMP_pressure;BME280_temperature;BME280_humidity;BME280_pressure;Samples;Min_cycle;Max_cycle;Signal;HPM_P1;HPM_P2
2023/01/26 00:00:26;;;;;;;55.67;36.20;;;11.90;95.90;;;;;;4589930;19;20482;-38
2023/01/26 00:02:17;;;;;;;54.47;36.07;;;11.80;95.90;;;;;;4589438;19;20011;-38
2023/01/26 00:03:50;;;;;;;56.00;37.37;;;11.80;95.90;;;;;;4589817;19;20428;-40
2023/01/26 00:05:21;;;;;;;51.35;35.35;;;11.80;95.90;;;;;;4589051;19;20413;-38
2023/01/26 00:06:52;;;;;;;55.28;36.78;;;11.90;95.90;;;;;;4589315;19;20018;-40
2023/01/26 00:08:23;;;;;;;53.13;35.17;;;11.90;95.90;;;;;;4589579;19;20031;-37
2023/01/26 00:09:55;;;;;;;53.95;34.60;;;11.90;95.90;;;;;;4589694;19;20010;-39
2023/01/26 00:11:26;;;;;;;51.00;34.35;;;11.80;95.90;;;;;;4589980;19;20485;-33
2023/01/26 00:12:58;;;;;;;46.50;31.50;;;11.80;96.00;;;;;;4587433;19;20022;-35
2023/01/26 00:14:48;;;;;;;47.25;31.98;;;11.80;96.00;;;;;;4588420;19;20464;-40
2023/01/26 00:16:22;;;;;;;47.57;30.97;;;11.80;95.90;;;;;;4588412;19;20034;-40
2023/01/26 00:17:54;;;;;;;48.87;32.37;;;11.80;96.00;;;;;;4588680;19;20445;-35
2023/01/26 00:19:26;;;;;;;49.50;34.10;;;11.80;95.90;;;;;;4588659;19;20443;-37
2023/01/26 00:20:59;;;;;;;50.20;34.35;;;11.80;95.90;;;;;;4588401;19;20450;-40
2023/01/26 00:22:30;;;;;;;51.63;35.97;;;11.80;95.90;;;;;;4588239;19;20014;-39
2023/01/26 00:24:03;;;;;;;52.80;37.40;;;11.80;95.90;;;;;;4589094;19;20437;-33
2023/01/26 00:25:38;;;;;;;54.15;35.92;;;11.80;95.90;;;;;;4588041;19;20455;-36
2023/01/26 00:27:10;;;;;;;50.40;33.23;;;11.90;96.00;;;;;;4588518;19;20100;-39
2023/01/26 00:28:43;;;;;;;46.67;32.07;;;11.80;95.90;;;;;;4588905;19;20440;-39
2023/01/26 00:30:14;;;;;;;;;;;11.80;95.90;;;;;;4589312;19;20540;-38
2023/01/26 00:31:46;;;;;;;46.67;31.02;;;11.90;96.00;;;;;;4586774;19;19922;-37
2023/01/26 00:33:17;;;;;;;46.67;31.05;;;11.80;96.00;;;;;;4587860;19;20018;-39
2023/01/26 00:34:49;;;;;;;50.00;33.27;;;11.80;96.00;;;;;;4587524;19;20014;-38
2023/01/26 00:36:22;;;;;;;47.30;30.33;;;11.80;96.00;;;;;;4589343;19;20516;-36
2023/01/26 00:37:53;;;;;;;50.50;32.83;;;11.80;96.10;;;;;;4587971;19;20521;-36
2023/01/26 00:39:25;;;;;;;49.65;32.20;;;11.80;96.10;;;;;;4588948;19;20074;-39
2023/01/26 00:40:56;;;;;;;49.20;32.22;;;11.80;96.10;;;;;;4588133;19;20006;-36
2023/01/26 00:42:27;;;;;;;54.72;31.92;;;11.80;96.10;;;;;;4588996;19;20494;-39
2023/01/26 00:44:00;;;;;;;50.40;33.13;;;11.80;96.00;;;;;;4588952;19;20014;-36
2023/01/26 00:45:33;;;;;;;48.30;31.07;;;11.80;96.00;;;;;;4587791;19;20432;-36
2023/01/26 00:47:08;;;;;;;48.73;32.13;;;11.80;96.00;;;;;;4587994;19;20472;-35
2023/01/26 00:48:39;;;;;;;49.40;31.93;;;11.90;96.10;;;;;;4588596;19;20833;-40
2023/01/26 00:50:11;;;;;;;47.28;30.88;;;11.90;96.10;;;;;;4588798;19;21051;-36
2023/01/26 00:51:43;;;;;;;49.07;31.53;;;11.80;96.00;;;;;;4589494;19;20014;-40
2023/01/26 00:53:14;;;;;;;46.42;32.20;;;11.80;96.10;;;;;;4588963;19;20856;-39
2023/01/26 00:54:46;;;;;;;52.67;31.77;;;11.80;96.20;;;;;;4587734;19;20015;-36
2023/01/26 00:56:18;;;;;;;46.40;30.03;;;11.80;96.30;;;;;;4587604;19;20011;-38
2023/01/26 00:57:50;;;;;;;48.83;31.00;;;11.80;96.20;;;;;;4588440;19;20820;-40
2023/01/26 00:59:21;;;;;;;;;;;11.80;96.30;;;;;;4590062;19;20017;-36
2023/01/26 01:00:52;;;;;;;47.30;30.03;;;11.80;96.30;;;;;;4587531;19;19990;-39
2023/01/26 01:02:24;;;;;;;46.53;29.70;;;11.80;96.30;;;;;;4587557;19;20421;-38
2023/01/26 01:03:58;;;;;;;47.77;31.20;;;11.80;96.30;;;;;;4588241;19;20014;-39
2023/01/26 01:05:30;;;;;;;48.87;31.73;;;11.80;96.30;;;;;;4588814;19;20421;-37
2023/01/26 01:07:01;;;;;;;45.88;29.02;;;11.80;96.30;;;;;;4588639;19;21019;-42
2023/01/26 01:08:32;;;;;;;45.40;30.13;;;11.80;96.30;;;;;;4588581;19;20014;-39
2023/01/26 01:10:04;;;;;;;46.00;28.70;;;11.90;96.30;;;;;;4588962;19;20017;-37
2023/01/26 01:11:36;;;;;;;45.67;30.00;;;11.90;96.30;;;;;;4588614;19;20350;-38
2023/01/26 01:13:08;;;;;;;47.35;29.20;;;11.80;96.30;;;;;;4587559;19;20576;-37
2023/01/26 01:14:39;;;;;;;44.95;28.67;;;11.80;96.40;;;;;;4587538;19;20034;-36
2023/01/26 01:16:14;;;;;;;45.77;28.53;;;11.90;96.40;;;;;;4588611;19;20015;-36
2023/01/26 01:17:46;;;;;;;50.20;30.37;;;11.90;96.70;;;;;;4586849;19;21158;-38
2023/01/26 01:19:17;;;;;;;46.87;29.23;;;11.80;96.40;;;;;;4587762;19;20421;-41
2023/01/26 01:20:50;;;;;;;47.90;29.47;;;11.90;96.40;;;;;;4588596;19;20958;-38
2023/01/26 01:22:23;;;;;;;47.43;30.53;;;11.90;96.50;;;;;;4588348;19;20441;-40
2023/01/26 01:23:54;;;;;;;49.63;30.63;;;11.80;96.50;;;;;;4587067;19;20468;-34
2023/01/26 01:25:25;;;;;;;44.75;28.85;;;11.80;96.60;;;;;;4588130;19;20090;-39
2023/01/26 01:26:57;;;;;;;48.67;29.23;;;11.80;96.50;;;;;;4587254;19;20018;-36
2023/01/26 01:28:30;;;;;;;48.20;28.90;;;11.80;96.60;;;;;;4587856;19;20456;-39
2023/01/26 01:30:06;;;;;;;;;;;11.80;96.60;;;;;;4589027;19;20437;-35
2023/01/26 01:31:38;;;;;;;50.30;30.23;;;11.80;96.60;;;;;;4586797;19;20357;-35
2023/01/26 01:33:09;;;;;;;46.03;30.02;;;11.80;96.60;;;;;;4591139;19;20487;-39
2023/01/26 01:34:42;;;;;;;54.23;31.27;;;11.90;96.70;;;;;;4591282;19;20007;-38
2023/01/26 01:36:15;;;;;;;59.40;40.13;;;11.90;96.60;;;;;;4592594;19;21028;-39
2023/01/26 01:37:48;;;;;;;62.57;42.73;;;11.80;96.60;;;;;;4591737;19;20018;-39
2023/01/26 01:39:20;;;;;;;79.93;54.13;;;11.80;96.60;;;;;;4592259;19;20421;-38
2023/01/26 01:40:53;;;;;;;80.10;56.87;;;11.90;96.60;;;;;;4591536;19;20433;-40
2023/01/26 01:42:26;;;;;;;86.47;60.17;;;11.80;96.60;;;;;;4592301;19;21030;-39
2023/01/26 01:44:17;;;;;;;97.93;69.45;;;11.90;96.60;;;;;;4591700;19;20443;-38
2023/01/26 01:45:49;;;;;;;103.55;71.93;;;11.90;96.70;;;;;;4591816;19;20019;-37
2023/01/26 01:47:23;;;;;;;80.87;54.70;;;11.90;96.70;;;;;;4592607;19;20021;-39
2023/01/26 01:49:23;;;;;;;68.90;45.83;;;11.80;96.70;;;;;;4590953;19;21075;-37
2023/01/26 01:50:57;;;;;;;65.00;43.23;;;11.90;96.70;;;;;;4590053;19;20804;-43
2023/01/26 01:52:30;;;;;;;57.97;38.50;;;11.90;96.70;;;;;;4590212;19;21016;-32
2023/01/26 01:54:10;;;;;;;54.97;36.77;;;11.80;96.70;;;;;;4589551;19;20497;-41
2023/01/26 01:55:42;;;;;;;60.97;36.20;;;11.90;96.80;;;;;;4590317;19;20495;-38
2023/01/26 01:57:17;;;;;;;54.13;32.90;;;11.90;96.80;;;;;;4589931;19;20886;-38
2023/01/26 01:58:51;;;;;;;59.23;33.03;;;11.90;96.80;;;;;;4590086;19;20017;-35
2023/01/26 02:00:23;;;;;;;50.77;31.60;;;11.90;96.80;;;;;;4590133;19;20441;-40
2023/01/26 02:01:56;;;;;;;56.43;33.77;;;11.90;96.80;;;;;;4589944;19;20495;-36
2023/01/26 02:03:27;;;;;;;54.38;34.40;;;11.90;96.80;;;;;;4589893;19;20433;-36
2023/01/26 02:05:00;;;;;;;;;;;11.90;96.80;;;;;;4591145;19;20073;-39
2023/01/26 02:06:41;;;;;;;55.47;33.00;;;11.90;96.80;;;;;;4589766;19;19914;-38
2023/01/26 02:08:15;;;;;;;55.83;32.97;;;11.90;96.70;;;;;;4590079;19;20014;-37
2023/01/26 02:11:39;;;;;;;55.07;32.40;;;11.80;96.70;;;;;;4590010;19;21031;-37
2023/01/26 02:13:11;;;;;;;47.80;31.07;;;11.90;96.80;;;;;;4588524;19;20481;-33
2023/01/26 02:14:43;;;;;;;51.38;32.63;;;11.90;96.80;;;;;;4588544;19;20441;-40
2023/01/26 02:16:16;;;;;;;50.67;31.87;;;11.80;96.80;;;;;;4590006;19;20029;-38
2023/01/26 02:17:47;;;;;;;;;;;11.80;96.80;;;;;;4590653;19;20492;-42
2023/01/26 02:19:41;;;;;;;56.63;33.83;;;11.90;96.80;;;;;;4589789;19;20330;-36
2023/01/26 02:21:18;;;;;;;52.87;32.60;;;11.80;96.80;;;;;;4589418;19;20421;-36
2023/01/26 02:22:58;;;;;;;48.97;31.40;;;11.80;96.80;;;;;;4589564;19;21108;-38
2023/01/26 02:24:32;;;;;;;51.67;30.63;;;11.90;96.80;;;;;;4589368;19;20457;-35
2023/01/26 02:26:12;;;;;;;49.57;30.23;;;11.80;96.80;;;;;;4589527;19;20011;-37
2023/01/26 02:27:44;;;;;;;46.77;29.50;;;11.80;96.80;;;;;;4589951;19;20441;-35
2023/01/26 02:29:15;;;;;;;50.60;30.33;;;11.90;96.90;;;;;;4590819;19;20425;-38
2023/01/26 02:30:48;;;;;;;45.30;29.33;;;11.80;96.90;;;;;;4589899;19;20033;-37
2023/01/26 02:32:19;;;;;;;;;;;11.80;97.10;;;;;;4592454;19;20500;-40
2023/01/26 02:33:51;;;;;;;46.80;29.73;;;11.90;96.90;;;;;;4590716;19;20325;-41
2023/01/26 02:35:22;;;;;;;45.47;30.10;;;11.80;96.90;;;;;;4591981;19;20010;-36
2023/01/26 02:36:56;;;;;;;41.80;27.20;;;11.80;96.90;;;;;;4590153;19;20100;-34
2023/01/26 02:38:32;;;;;;;43.67;29.57;;;11.80;97.10;;;;;;4591086;19;21410;-33
2023/01/26 02:40:09;;;;;;;45.37;29.03;;;11.80;96.90;;;;;;4590583;19;20848;-42
2023/01/26 02:43:31;;;;;;;42.40;27.33;;;11.90;96.90;;;;;;4589920;19;20409;-37
2023/01/26 02:45:04;;;;;;;41.33;27.90;;;11.90;96.90;;;;;;4591167;19;20565;-40
2023/01/26 02:46:37;;;;;;;39.77;27.13;;;11.80;96.90;;;;;;4590295;19;20429;-36
2023/01/26 02:48:09;;;;;;;38.57;27.30;;;11.80;96.90;;;;;;4590820;19;21058;-41
2023/01/26 02:49:49;;;;;;;38.07;24.93;;;11.80;97.00;;;;;;4591645;19;20459;-39
2023/01/26 02:51:21;;;;;;;38.30;26.33;;;11.90;97.00;;;;;;4589032;19;20417;-38
2023/01/26 02:52:53;;;;;;;;;;;11.90;97.00;;;;;;4591578;19;20451;-36
2023/01/26 02:56:15;;;;;;;35.43;23.90;;;11.80;97.00;;;;;;4591173;19;20038;-39
2023/01/26 02:57:48;;;;;;;35.92;25.65;;;11.90;97.00;;;;;;4591217;19;20437;-36
2023/01/26 02:59:19;;;;;;;38.43;26.23;;;11.80;97.00;;;;;;4590970;19;20594;-41
2023/01/26 03:00:51;;;;;;;37.03;25.80;;;11.90;97.00;;;;;;4591270;19;20527;-39
2023/01/26 03:02:23;;;;;;;37.60;26.40;;;11.90;97.00;;;;;;4591216;19;20455;-34
2023/01/26 03:03:54;;;;;;;37.50;26.55;;;11.90;97.00;;;;;;4590937;19;20078;-37
2023/01/26 03:05:26;;;;;;;38.75;25.65;;;11.90;97.00;;;;;;4590979;19;20074;-38
2023/01/26 03:06:57;;;;;;;34.83;24.13;;;11.90;97.00;;;;;;4589681;19;20025;-41
2023/01/26 03:08:29;;;;;;;;;;;11.90;97.00;;;;;;4591787;19;20492;-41
2023/01/26 03:10:00;;;;;;;34.17;23.37;;;11.90;97.00;;;;;;4590806;19;19978;-41
2023/01/26 03:11:40;;;;;;;38.00;25.30;;;11.90;97.00;;;;;;4590682;19;20018;-37
2023/01/26 03:13:13;;;;;;;34.80;24.60;;;11.80;97.00;;;;;;4589746;19;20867;-38
2023/01/26 03:14:45;;;;;;;;;;;11.90;97.00;;;;;;4590723;19;20802;-35
2023/01/26 03:16:17;;;;;;;36.85;25.10;;;11.90;96.90;;;;;;4590752;19;19922;-37
2023/01/26 03:17:49;;;;;;;37.63;24.80;;;11.80;96.90;;;;;;4590870;19;20506;-36
2023/01/26 03:28:33;;;;;;;39.57;26.97;;;11.90;97.10;;;;;;4590439;19;20528;-41
2023/01/26 03:30:05;;;;;;;36.08;24.52;;;11.90;97.10;;;;;;4590612;19;20433;-37
2023/01/26 03:31:38;;;;;;;37.80;24.80;;;11.80;97.00;;;;;;4589537;19;20032;-38
2023/01/26 03:33:09;;;;;;;35.78;25.50;;;11.80;97.10;;;;;;4590171;19;20437;-37
2023/01/26 03:34:40;;;;;;;41.13;26.08;;;11.90;97.10;;;;;;4589611;19;20015;-36
2023/01/26 03:36:13;;;;;;;39.33;26.87;;;11.80;97.10;;;;;;4590537;19;20490;-42
2023/01/26 03:37:52;;;;;;;38.03;25.40;;;11.80;97.10;;;;;;4590305;19;20760;-37
2023/01/26 03:57:51;;;;;;;38.87;26.27;;;11.90;97.30;;;;;;4588994;19;20475;-36
2023/01/26 03:59:36;;;;;;;41.67;26.67;;;11.90;97.30;;;;;;4589615;19;21012;-40
2023/01/26 04:01:18;;;;;;;38.30;26.43;;;11.90;97.20;;;;;;4590067;19;20484;-39
2023/01/26 04:08:25;;;;;;;39.33;27.03;;;11.90;97.20;;;;;;4590025;19;20413;-36
2023/01/26 04:09:57;;;;;;;37.60;25.20;;;11.80;97.20;;;;;;4589583;19;20937;-37
2023/01/26 04:11:29;;;;;;;41.70;26.77;;;11.90;97.30;;;;;;4589739;19;20433;-33
2023/01/26 04:22:13;;;;;;;40.40;26.77;;;11.90;97.30;;;;;;4589619;19;20409;-39
2023/01/26 04:23:45;;;;;;;37.87;24.97;;;11.90;97.30;;;;;;4589949;19;20539;-38
2023/01/26 04:25:18;;;;;;;41.67;26.38;;;11.90;97.30;;;;;;4589305;19;20455;-39
2023/01/26 04:26:53;;;;;;;40.53;25.90;;;11.90;97.30;;;;;;4587313;19;20018;-36
2023/01/26 04:28:24;;;;;;;40.60;26.13;;;11.90;97.30;;;;;;4589113;19;20459;-37
2023/01/26 04:29:57;;;;;;;39.43;25.10;;;11.90;97.30;;;;;;4589543;19;20014;-36
2023/01/26 04:31:28;;;;;;;37.92;26.67;;;11.90;97.30;;;;;;4588489;19;20453;-39
2023/01/26 04:33:00;;;;;;;37.45;24.98;;;11.90;97.30;;;;;;4589441;19;20011;-41
2023/01/26 04:34:31;;;;;;;40.77;27.10;;;11.80;97.30;;;;;;4588594;19;20039;-40
2023/01/26 04:36:06;;;;;;;43.22;27.10;;;11.90;97.30;;;;;;4589213;19;20448;-35
2023/01/26 04:37:38;;;;;;;37.93;25.60;;;11.80;97.30;;;;;;4589275;19;20372;-38
2023/01/26 04:39:10;;;;;;;38.47;25.87;;;11.90;97.30;;;;;;4589135;19;20467;-38
2023/01/26 04:40:41;;;;;;;39.00;26.13;;;11.90;97.20;;;;;;4589438;19;21107;-33
2023/01/26 04:42:13;;;;;;;35.55;24.38;;;11.90;97.20;;;;;;4590102;19;20384;-34
2023/01/26 04:43:45;;;;;;;41.27;26.53;;;11.90;97.20;;;;;;4589785;19;20014;-36
2023/01/26 04:45:17;;;;;;;43.08;27.95;;;12.00;97.20;;;;;;4587689;19;20429;-33
2023/01/26 04:46:49;;;;;;;41.00;27.50;;;11.90;97.20;;;;;;4588498;19;20014;-34
2023/01/26 04:48:21;;;;;;;39.90;27.38;;;12.00;97.10;;;;;;4588474;19;20413;-33
2023/01/26 04:49:52;;;;;;;46.05;29.60;;;12.10;97.00;;;;;;4588350;19;20018;-41
2023/01/26 04:51:24;;;;;;;43.55;28.05;;;12.20;96.90;;;;;;4588627;19;20022;-39
2023/01/26 04:52:55;;;;;;;40.50;27.60;;;12.20;96.70;;;;;;4589046;19;20021;-39
2023/01/26 04:54:27;;;;;;;38.72;26.50;;;12.30;96.70;;;;;;4587735;19;20025;-39
2023/01/26 04:55:58;;;;;;;38.97;26.10;;;12.30;96.60;;;;;;4587059;19;20010;-39
2023/01/26 04:57:30;;;;;;;39.40;27.27;;;12.30;96.50;;;;;;4588184;19;20074;-38
2023/01/26 04:59:04;;;;;;;40.87;26.83;;;12.30;96.50;;;;;;4588232;19;20487;-34
2023/01/26 05:00:38;;;;;;;38.70;26.83;;;12.30;96.50;;;;;;4588344;19;21054;-35
2023/01/26 05:02:09;;;;;;;39.53;27.00;;;12.40;96.50;;;;;;4589276;19;20437;-36
2023/01/26 05:03:40;;;;;;;40.15;27.23;;;12.40;96.40;;;;;;4587047;19;20014;-35
2023/01/26 05:05:12;;;;;;;38.58;25.98;;;12.50;96.40;;;;;;4587858;19;20011;-43
2023/01/26 05:06:44;;;;;;;36.37;26.80;;;12.50;96.40;;;;;;4590323;19;20020;-38
2023/01/26 05:08:16;;;;;;;40.28;27.17;;;12.40;96.40;;;;;;4592213;19;20429;-40
2023/01/26 05:09:47;;;;;;;44.13;32.03;;;12.40;96.40;;;;;;4591782;19;20183;-42
2023/01/26 05:11:19;;;;;;;42.95;31.00;;;12.20;96.40;;;;;;4592434;19;20425;-36
2023/01/26 05:12:50;;;;;;;41.22;27.50;;;10.20;98.40;;;;;;4590868;19;20015;-39
2023/01/26 05:14:22;;;;;;;40.35;27.33;;;9.00;99.90;;;;;;4590983;19;20019;-35
2023/01/26 05:15:54;;;;;;;41.40;26.97;;;8.40;99.90;;;;;;4591671;19;20034;-40
2023/01/26 05:17:25;;;;;;;46.67;29.77;;;8.10;99.90;;;;;;4591654;19;20463;-38
2023/01/26 05:18:56;;;;;;;46.63;29.50;;;8.00;99.90;;;;;;4591824;19;20135;-38
2023/01/26 05:20:28;;;;;;;46.30;29.07;;;7.80;99.90;;;;;;4592176;19;20379;-34
2023/01/26 05:22:00;;;;;;;;;;;7.80;99.90;;;;;;4593065;19;20429;-41
2023/01/26 05:23:32;;;;;;;44.97;29.08;;;7.70;99.90;;;;;;4591596;19;19922;-39
2023/01/26 05:25:04;;;;;;;44.20;28.70;;;7.70;99.90;;;;;;4591687;19;20018;-36
2023/01/26 05:26:35;;;;;;;42.50;27.67;;;7.60;99.90;;;;;;4592088;19;20364;-44
2023/01/26 05:28:06;;;;;;;46.33;29.27;;;7.60;99.90;;;;;;4592105;19;20015;-34
2023/01/26 05:29:38;;;;;;;47.83;32.03;;;7.60;99.90;;;;;;4588775;19;20019;-33
2023/01/26 05:31:09;;;;;;;88.40;58.10;;;7.60;99.90;;;;;;4590333;19;20085;-36
2023/01/26 05:32:42;;;;;;;80.67;54.87;;;7.50;99.90;;;;;;4591314;19;20011;-34
2023/01/26 05:34:14;;;;;;;;;;;7.50;99.90;;;;;;4589640;19;20442;-40
2023/01/26 05:35:51;;;;;;;60.77;42.57;;;7.50;99.90;;;;;;4593055;19;20329;-42
2023/01/26 05:37:24;;;;;;;68.97;48.00;;;7.50;99.90;;;;;;4593585;19;20436;-33
2023/01/26 05:38:56;;;;;;;58.20;39.40;;;7.50;99.90;;;;;;4594254;19;20751;-39
2023/01/26 05:40:27;;;;;;;;;;;7.50;99.90;;;;;;4594684;19;21016;-33
2023/01/26 05:41:59;;;;;;;62.55;41.17;;;7.50;99.90;;;;;;4593610;19;19911;-41
2023/01/26 05:43:31;;;;;;;101.15;79.97;;;7.40;99.90;;;;;;4593698;19;20015;-37
2023/01/26 05:45:05;;;;;;;97.67;74.40;;;7.40;99.90;;;;;;4593564;19;20015;-36
2023/01/26 05:46:36;;;;;;;103.57;86.97;;;7.40;99.90;;;;;;4593829;19;20460;-40
2023/01/26 05:48:08;;;;;;;76.22;61.28;;;7.40;99.90;;;;;;4593411;19;20575;-39
2023/01/26 05:49:41;;;;;;;69.00;49.85;;;7.40;99.90;;;;;;4593030;19;20403;-41
2023/01/26 05:51:13;;;;;;;63.23;45.73;;;7.40;99.90;;;;;;4592810;19;20021;-40
2023/01/26 05:52:47;;;;;;;63.97;41.42;;;7.40;99.90;;;;;;4592345;19;20882;-41
2023/01/26 05:54:18;;;;;;;71.27;41.47;;;7.30;99.90;;;;;;4591391;19;20014;-38
2023/01/26 05:55:49;;;;;;;74.55;41.53;;;7.30;99.90;;;;;;4591836;19;20425;-38
2023/01/26 05:57:22;;;;;;;73.00;39.97;;;7.30;99.90;;;;;;4591688;19;20028;-38
2023/01/26 05:58:54;;;;;;;65.57;38.67;;;7.30;99.90;;;;;;4591479;19;20540;-39
2023/01/26 06:00:25;;;;;;;61.15;39.00;;;7.30;99.90;;;;;;4594090;19;20010;-38
2023/01/26 06:01:57;;;;;;;66.50;37.53;;;7.30;99.90;;;;;;4593829;19;20021;-42
2023/01/26 06:03:28;;;;;;;56.53;35.13;;;7.20;99.90;;;;;;4593232;19;20007;-36
2023/01/26 06:04:59;;;;;;;51.38;33.60;;;7.20;99.90;;;;;;4592787;19;20018;-43
2023/01/26 06:06:31;;;;;;;54.35;33.78;;;7.20;99.90;;;;;;4592484;19;20494;-41
2023/01/26 06:08:02;;;;;;;49.53;30.77;;;7.20;99.90;;;;;;4592012;19;20349;-39
2023/01/26 06:09:35;;;;;;;50.43;30.87;;;7.20;99.90;;;;;;4592011;19;20447;-39
2023/01/26 06:11:07;;;;;;;53.70;33.15;;;7.20;99.90;;;;;;4590097;19;20453;-35
2023/01/26 06:12:41;;;;;;;55.00;33.15;;;7.20;99.90;;;;;;4589757;19;20010;-36
2023/01/26 06:14:13;;;;;;;96.93;55.83;;;7.20;99.90;;;;;;4590817;19;20082;-37
2023/01/26 06:15:44;;;;;;;60.60;38.45;;;7.20;99.90;;;;;;4593648;19;20843;-39
2023/01/26 06:17:17;;;;;;;58.13;36.37;;;7.10;99.90;;;;;;4593346;19;20011;-42
2023/01/26 06:18:48;;;;;;;;;;;7.10;99.90;;;;;;4592373;19;20501;-37
2023/01/26 06:20:19;;;;;;;52.63;31.53;;;7.10;99.90;;;;;;4592903;19;19975;-38
2023/01/26 06:21:52;;;;;;;52.70;32.67;;;7.10;99.90;;;;;;4592038;19;21016;-35
2023/01/26 06:23:23;;;;;;;51.63;31.40;;;7.10;99.90;;;;;;4590723;19;20029;-38
2023/01/26 06:24:54;;;;;;;51.40;30.42;;;7.10;99.90;;;;;;4589861;19;20437;-39
2023/01/26 06:26:26;;;;;;;52.10;32.45;;;7.10;99.90;;;;;;4593300;19;20017;-38
2023/01/26 06:27:57;;;;;;;55.28;31.98;;;7.10;99.90;;;;;;4592980;19;20082;-38
2023/01/26 06:29:32;;;;;;;51.80;32.67;;;7.10;99.90;;;;;;4593447;19;20502;-41
2023/01/26 06:31:06;;;;;;;53.93;33.43;;;7.10;99.90;;;;;;4591403;19;20499;-38
2023/01/26 06:32:39;;;;;;;56.53;33.30;;;7.10;99.90;;;;;;4592680;19;20417;-38
2023/01/26 06:34:10;;;;;;;60.92;36.67;;;7.10;99.90;;;;;;4592103;19;20484;-38
2023/01/26 06:35:41;;;;;;;55.58;34.42;;;7.10;99.90;;;;;;4592788;19;20007;-33
2023/01/26 06:37:14;;;;;;;58.10;33.80;;;7.10;99.90;;;;;;4592929;19;20459;-42
2023/01/26 06:38:51;;;;;;;60.10;35.33;;;7.10;99.90;;;;;;4592277;19;20464;-38
2023/01/26 06:40:25;;;;;;;64.07;36.33;;;7.10;99.90;;;;;;4591323;19;20794;-41
2023/01/26 06:41:57;;;;;;;64.97;36.93;;;7.10;99.90;;;;;;4592132;19;20436;-39
2023/01/26 06:43:29;;;;;;;70.85;40.08;;;7.10;99.90;;;;;;4592032;19;20443;-39
2023/01/26 06:45:01;;;;;;;69.27;37.47;;;7.10;99.90;;;;;;4592832;19;20024;-38
2023/01/26 06:46:33;;;;;;;61.45;36.60;;;7.10;99.90;;;;;;4592127;19;21035;-34
2023/01/26 06:48:06;;;;;;;74.83;46.90;;;7.10;99.90;;;;;;4592214;19;20456;-41
2023/01/26 06:49:37;;;;;;;74.65;48.58;;;7.10;99.90;;;;;;4592793;19;20459;-40
2023/01/26 06:51:19;;;;;;;66.20;42.50;;;7.10;99.90;;;;;;4592439;19;20036;-35
2023/01/26 06:52:51;;;;;;;59.43;36.33;;;7.10;99.90;;;;;;4592070;19;20425;-41
2023/01/26 06:54:24;;;;;;;53.53;35.03;;;7.10;99.90;;;;;;4590437;19;20460;-37
2023/01/26 06:55:55;;;;;;;60.63;36.83;;;7.10;99.90;;;;;;4591670;19;20567;-38
2023/01/26 06:57:27;;;;;;;54.08;34.58;;;7.10;99.90;;;;;;4592185;19;20010;-38
2023/01/26 06:58:58;;;;;;;55.05;34.17;;;7.10;99.90;;;;;;4592105;19;20348;-40
2023/01/26 07:00:30;;;;;;;55.23;34.00;;;7.10;99.90;;;;;;4592004;19;20516;-38
2023/01/26 07:02:01;;;;;;;54.90;34.22;;;7.00;99.90;;;;;;4591224;19;20505;-37
2023/01/26 07:03:34;;;;;;;58.80;33.30;;;7.10;99.90;;;;;;4591314;19;20025;-38
2023/01/26 07:05:06;;;;;;;60.28;36.90;;;7.10;99.90;;;;;;4591879;19;20527;-39
2023/01/26 07:06:38;;;;;;;58.20;35.20;;;7.00;99.90;;;;;;4591864;19;20014;-38
2023/01/26 07:08:10;;;;;;;56.47;36.40;;;7.10;99.90;;;;;;4592296;19;20475;-42
2023/01/26 07:09:42;;;;;;;55.20;34.97;;;7.10;99.90;;;;;;4591750;19;20465;-36
2023/01/26 07:11:15;;;;;;;60.13;37.73;;;7.10;99.90;;;;;;4592123;19;20018;-33
2023/01/26 07:12:48;;;;;;;61.37;40.60;;;7.10;99.90;;;;;;4589575;19;20465;-40
2023/01/26 07:14:20;;;;;;;66.20;43.43;;;7.10;99.90;;;;;;4590919;19;20491;-41
2023/01/26 07:16:00;;;;;;;65.57;42.53;;;7.00;99.90;;;;;;4591473;19;20432;-43
2023/01/26 07:17:32;;;;;;;63.87;40.47;;;7.10;99.90;;;;;;4591942;19;20461;-40
2023/01/26 07:19:04;;;;;;;63.72;40.17;;;7.00;99.90;;;;;;4592019;19;20443;-38
2023/01/26 07:20:37;;;;;;;60.33;36.33;;;7.00;99.90;;;;;;4592354;19;20312;-39
2023/01/26 07:22:08;;;;;;;57.72;35.25;;;7.00;99.90;;;;;;4590138;19;20783;-39
2023/01/26 07:23:39;;;;;;;64.07;38.08;;;7.00;99.90;;;;;;4591459;19;20010;-42
2023/01/26 07:25:14;;;;;;;58.77;37.50;;;7.00;99.90;;;;;;4591852;19;20007;-38
2023/01/26 07:26:48;;;;;;;61.70;37.47;;;7.00;99.90;;;;;;4592176;19;20467;-43
2023/01/26 07:28:19;;;;;;;57.88;37.13;;;7.10;99.90;;;;;;4591396;19;20441;-35
2023/01/26 07:29:53;;;;;;;59.33;37.33;;;7.00;99.90;;;;;;4589319;19;20046;-40
2023/01/26 07:31:26;;;;;;;57.10;35.47;;;7.10;99.90;;;;;;4590745;19;20485;-39
2023/01/26 07:32:58;;;;;;;;;;;7.00;99.90;;;;;;4592755;19;20440;-35
2023/01/26 07:34:29;;;;;;;57.88;34.83;;;7.00;99.90;;;;;;4590775;19;19907;-41
2023/01/26 07:36:01;;;;;;;60.22;36.33;;;7.00;99.90;;;;;;4591753;19;20010;-37
2023/01/26 07:37:33;;;;;;;62.43;37.30;;;7.00;99.90;;;;;;4590765;19;20007;-41
2023/01/26 07:39:07;;;;;;;59.00;36.93;;;7.00;99.90;;;;;;4590865;19;20417;-35
2023/01/26 07:40:39;;;;;;;62.83;38.37;;;7.10;99.90;;;;;;4590928;19;20445;-41
2023/01/26 07:42:12;;;;;;;63.60;37.10;;;7.70;99.90;;;;;;4591576;19;20449;-40
2023/01/26 07:43:45;;;;;;;63.60;37.20;;;8.40;99.90;;;;;;4590683;19;20465;-40
2023/01/26 07:45:18;;;;;;;62.57;38.00;;;8.90;99.90;;;;;;4591212;19;20519;-41
2023/01/26 07:46:50;;;;;;;66.93;40.13;;;9.20;99.90;;;;;;4590785;19;20536;-43
2023/01/26 07:48:22;;;;;;;68.40;41.30;;;9.40;99.90;;;;;;4591198;19;20006;-36
2023/01/26 07:49:54;;;;;;;63.17;39.00;;;9.60;99.90;;;;;;4588437;19;20327;-39
2023/01/26 07:51:26;;;;;;;63.90;38.03;;;9.80;99.90;;;;;;4588539;19;20432;-36
2023/01/26 07:53:00;;;;;;;56.10;34.80;;;9.90;99.90;;;;;;4588289;19;20441;-40
2023/01/26 07:54:31;;;;;;;61.08;38.30;;;10.00;99.90;;;;;;4587359;19;20473;-34
2023/01/26 07:56:06;;;;;;;66.28;37.97;;;10.10;99.90;;;;;;4589126;19;20006;-37
2023/01/26 07:57:39;;;;;;;57.80;36.83;;;10.20;99.90;;;;;;4588394;19;20052;-36
2023/01/26 07:59:11;;;;;;;;;;;10.20;99.90;;;;;;4591755;19;20508;-38
2023/01/26 08:00:46;;;;;;;61.95;37.30;;;10.30;99.90;;;;;;4588293;19;19922;-41
2023/01/26 08:02:17;;;;;;;61.13;37.37;;;10.40;99.90;;;;;;4588817;19;20010;-39
2023/01/26 08:03:50;;;;;;;59.95;35.85;;;10.50;99.90;;;;;;4588243;19;20893;-37
2023/01/26 08:05:23;;;;;;;58.07;35.80;;;10.50;99.90;;;;;;4588345;19;20019;-40
2023/01/26 08:06:56;;;;;;;;;;;10.60;99.90;;;;;;4589321;19;20516;-35
2023/01/26 08:08:27;;;;;;;59.45;36.10;;;10.60;99.90;;;;;;4588753;19;19915;-39
2023/01/26 08:09:59;;;;;;;60.47;36.67;;;10.60;99.90;;;;;;4587882;19;20014;-39
2023/01/26 08:11:31;;;;;;;60.03;38.70;;;10.70;99.90;;;;;;4588350;19;20509;-38
2023/01/26 08:13:02;;;;;;;57.08;37.90;;;10.70;99.90;;;;;;4587401;19;20012;-42
2023/01/26 08:14:34;;;;;;;57.13;38.23;;;10.80;99.90;;;;;;4587812;19;20034;-33
2023/01/26 08:16:10;;;;;;;60.83;38.10;;;10.80;99.90;;;;;;4588196;19;20436;-42
2023/01/26 08:17:43;;;;;;;56.17;36.23;;;10.80;99.90;;;;;;4588123;19;20520;-40
2023/01/26 08:19:14;;;;;;;58.13;34.83;;;10.80;99.90;;;;;;4587963;19;20900;-35
2023/01/26 08:20:52;;;;;;;57.60;35.15;;;10.80;99.90;;;;;;4588266;19;20348;-39
2023/01/26 08:22:24;;;;;;;57.87;35.83;;;10.80;99.90;;;;;;4590194;19;20006;-39
2023/01/26 08:24:00;;;;;;;57.22;36.47;;;10.90;99.90;;;;;;4587836;19;20468;-41
2023/01/26 08:25:33;;;;;;;56.63;37.23;;;10.90;99.90;;;;;;4588655;19;20074;-38
2023/01/26 08:27:04;;;;;;;62.15;37.90;;;11.00;99.90;;;;;;4588070;19;20528;-38
2023/01/26 08:28:35;;;;;;;61.08;39.63;;;11.00;99.90;;;;;;4587901;19;20010;-43
2023/01/26 08:30:08;;;;;;;63.17;39.07;;;11.00;99.90;;;;;;4588539;19;20463;-41
2023/01/26 08:31:40;;;;;;;61.47;38.27;;;11.00;99.90;;;;;;4587151;19;20448;-39
2023/01/26 08:33:12;;;;;;;62.88;39.20;;;11.00;99.90;;;;;;4587184;19;20889;-35
2023/01/26 08:34:45;;;;;;;61.73;37.17;;;11.00;99.90;;;;;;4586747;19;20015;-40
2023/01/26 08:36:55;;;;;;;58.20;36.80;;;11.00;99.90;;;;;;4588980;19;20512;-36
2023/01/26 08:38:46;;;;;;;59.50;36.37;;;11.10;99.90;;;;;;4589243;19;20476;-43
2023/01/26 08:40:30;;;;;;;73.03;46.63;;;11.10;99.90;;;;;;4590146;19;20523;-42
2023/01/26 08:42:02;;;;;;;66.40;41.70;;;11.10;99.90;;;;;;4591063;19;20441;-39
2023/01/26 08:43:33;;;;;;;71.78;42.75;;;11.10;99.90;;;;;;4593452;19;20605;-34
2023/01/26 08:45:05;;;;;;;70.38;43.83;;;11.10;99.90;;;;;;4592377;19;20357;-38